x

Cape Cleare - 17 Nm South Of Montague Is, Ak (46076) Wave Buoy

2:50pm - Thu 28th Jul 2016 All times are AKDT. -8 hours from GMT.

  • Sig Wave height 5.6ft
  • Swell Direction
  • Peak Period 8s
  • Average Period 5s
  • Wind
    22mph, 27mph gusts
  • Sea Temp 58°f
  • Air Temp 57°f
  • Sea Pressure 1011.8mb
  • Cape Cleare - 17 Nm South Of Montague Is,  Ak
  • Cape Cleare - 17 Nm South Of Montague Is,  Ak

More Historic Weather Station data

Upgrade to MSW Pro to gain access to the past 30 days of data for over 8000 Wavebouys and Weather Stations around the globe.

Join Pro

Comparision Forecast

View Surf forecast
   
Thu 07/28 2:50pm 5.5ft 8s 5s 22 27 mph 1011.8mb 58f 57f
1:50pm 5ft 8s 5s 22 25 mph 1011.7mb 59f 57f
12:50pm 5ft 8s 5s 20 22 mph 1011.5mb 59f 57f
11:50am 5ft 7s 5s 18 20 mph 1011mb 59f 57f
9:50am 5ft 7s 5s 20 25 mph 1010.4mb 59f 57f
8:50am 5ft 7s 5s 16 20 mph 1010.2mb 59f 58f
7:50am 5ft 7s 5s 18 20 mph 1009.7mb 59f 58f
6:50am 5ft 7s 5s 18 22 mph 1009.3mb 58f 57f
5:50am 5ft 7s 5s 18 20 mph 1009.1mb 58f 57f
4:50am 5ft 7s 5s 16 18 mph 1008.9mb 58f 58f
3:50am 5ft 7s 5s 18 20 mph 1008.4mb 58f 58f
2:50am 5.5ft 7s 5s 16 18 mph 1008.1mb 58f 58f
1:50am 5.5ft 7s 5s 13 16 mph 1007.7mb 58f 58f
12:50am 6ft 8s 5s 13 16 mph 1007.1mb 58f 57f
Wed 07/27 11:50pm 5.5ft 7s 5s 18 20 mph 1006.4mb 58f 57f
10:50pm 5ft 7s 5s 18 22 mph 1006.2mb 58f 57f
9:50pm 5.5ft 8s 5s 16 18 mph 1006.2mb 58f 57f
8:50pm 5.5ft 6s 5s 16 18 mph 1006.3mb 58f 58f
7:50pm 6ft 7s 6s 16 20 mph 1006.3mb 58f 58f
6:50pm 6ft 7s 6s 18 20 mph 1006.4mb 58f 58f
5:50pm 7ft 7s 5s 20 25 mph 1006.4mb 58f 57f
4:50pm 6ft 7s 5s 29 36 mph 1006.7mb 58f 56f
3:50pm 6ft 7s 5s 25 29 mph 1007.8mb 59f 56f
2:50pm 6.5ft 7s 5s 25 29 mph 1008.6mb 58f 57f
1:50pm 6ft 7s 5s 25 29 mph 1009.1mb 58f 57f
12:50pm 6ft 7s 5s 22 27 mph 1009.6mb 58f 58f
11:50am 5.5ft 7s 5s 22 25 mph 1009.6mb 58f 57f
10:50am 5.5ft 7s 6s 16 20 mph 1009.9mb 58f 57f
9:50am 5.5ft 7s 6s 16 18 mph 1010.3mb 58f 58f
8:50am 4.5ft 8s 5s 16 20 mph 1010.5mb 58f 58f
7:50am 5ft 7s 5s 18 20 mph 1010.5mb 58f 57f
6:50am 5ft 7s 6s 18 20 mph 1010.6mb 58f 57f
5:50am 5ft 7s 5s 13 18 mph 1010.9mb 58f 58f
4:50am 4.5ft 7s 5s 13 16 mph 1010.9mb 58f 58f
3:50am 4.5ft 8s 5s 16 18 mph 1011mb 58f 58f
2:50am 4.5ft 7s 5s 16 18 mph 1010.9mb 58f 57f
1:50am 5ft 8s 5s 13 16 mph 1010.8mb 57f 58f
12:50am 4.5ft 8s 5s 13 16 mph 1010.8mb 58f 57f
Tue 07/26 11:50pm 5ft 8s 5s 16 18 mph 1010.9mb 58f 57f
10:50pm 5ft 8s 5s 16 20 mph 1011mb 58f 56f
9:50pm 5.5ft 8s 6s 18 22 mph 1011.2mb 58f 57f
8:50pm 5ft 8s 6s 16 18 mph 1011.4mb 58f 57f
7:50pm 5ft 8s 6s 16 18 mph 1011.5mb 58f 56f
6:50pm 6ft 8s 6s 16 18 mph 1011.5mb 58f 57f
5:50pm 6ft 9s 6s 16 18 mph 1011.6mb 58f 58f
4:50pm 6ft 9s 6s 13 18 mph 1011.5mb 58f 58f
3:50pm 6ft 8s 6s 18 20 mph 1011.2mb 57f 58f
2:50pm 6.5ft 8s 6s 16 18 mph 1010.8mb 57f 58f
1:50pm 7.5ft 8s 6s 16 18 mph 1010.3mb 57f 57f
12:50pm 8ft 7s 6s 16 18 mph 1009.9mb 57f 57f
11:50am 9ft 7s 6s 25 29 mph 1009.5mb 57f 56f
10:50am 8ft 7s 6s 27 34 mph 1009.4mb 58f 56f
9:50am 7ft 7s 5s 27 31 mph 1009.5mb 57f 55f
8:50am 6ft 6s 5s 25 31 mph 1009.7mb 57f 56f
7:50am 5.5ft 6s 5s 22 27 mph 1010.1mb 57f 57f
6:50am 4.5ft 6s 5s 20 25 mph 1010.5mb 57f 56f
5:50am 5ft 6s 5s 18 22 mph 1010.9mb 58f 57f
4:50am 4.5ft 6s 5s 16 18 mph 1011.3mb 58f 57f
3:50am 4.5ft 6s 5s 18 20 mph 1011.5mb 59f 57f
2:50am 4.5ft 15s 5s 18 22 mph 1011.8mb 59f 57f
1:50am 5ft 6s 5s 20 22 mph 1012.1mb 59f 57f
12:50am 5ft 16s 5s 16 18 mph 1012.4mb 59f 57f
Mon 07/25 11:50pm 5ft 6s 5s 16 18 mph 1012.5mb 59f 57f
10:50pm 5ft 6s 5s 18 20 mph 1012.4mb 58f 57f
9:50pm 4.5ft 5s 5s 18 20 mph 1012.1mb 58f 57f
8:50pm 5ft 7s 5s 16 18 mph 1012mb 58f 56f
7:50pm 4.5ft 6s 5s 18 22 mph 1011.7mb 59f 57f
6:50pm 4.5ft 6s 5s 16 20 mph 1011.5mb 59f 57f
5:50pm 4.5ft 6s 5s 16 18 mph 1011.5mb 59f 57f
4:50pm 4.5ft 6s 5s 20 22 mph 1011.2mb 59f 58f
3:50pm 5ft 6s 5s 16 18 mph 1011.1mb 59f 58f
2:50pm 5ft 6s 5s 18 22 mph 1010.7mb 60f 56f
1:50pm 4.5ft 6s 5s 18 20 mph 1010.3mb 60f 57f
12:50pm 4.5ft 6s 5s 16 20 mph 1009.9mb 60f 57f
11:50am 5ft 7s 6s 18 22 mph 1009.3mb 60f 56f
9:50am 5ft 7s 6s 16 20 mph 1008.1mb 59f 56f
8:50am 4.5ft 7s 5s 16 20 mph 1007.5mb 59f 56f
7:50am 4.5ft 7s 5s 18 20 mph 1006.9mb 59f 57f
6:50am 4ft 8s 5s 18 20 mph 1006.4mb 59f 56f
5:50am 4.5ft 7s 5s 13 16 mph 1006.4mb 58f 56f
4:50am 4.5ft 8s 6s 13 16 mph 1006.3mb 58f 57f
3:50am 4.5ft 7s 6s 11 13 mph 1006.4mb 58f 57f
2:50am 4ft 7s 6s 13 16 mph 1006.4mb 59f 57f
1:50am 4ft 15s 6s 9 11 mph 1006.4mb 60f 57f